Time;durP1;ratioP1;P1;durP2;ratioP2;P2;SDS_P1;SDS_P2;PMS_P1;PMS_P2;Temp;Humidity;BMP_temperature;BMP_pressure;BME280_temperature;BME280_humidity;BME280_pressure;Samples;Min_cycle;Max_cycle;Signal;HPM_P1;HPM_P2
2022/06/29 00:00:17;;;;;;;4.28;2.88;;;28.10;52.40;;;;;;4917884;29;20035;-48
2022/06/29 00:02:44;;;;;;;3.45;2.65;;;28.10;52.40;;;;;;4918026;29;20024;-50
2022/06/29 00:05:11;;;;;;;4.13;3.33;;;28.10;52.50;;;;;;4916421;29;20570;-48
2022/06/29 00:07:37;;;;;;;3.83;3.00;;;28.10;52.40;;;;;;4917705;29;20035;-46
2022/06/29 00:10:04;;;;;;;3.58;2.92;;;28.00;52.40;;;;;;4916669;29;20086;-46
2022/06/29 00:12:30;;;;;;;3.70;2.90;;;28.00;52.40;;;;;;4918586;29;20040;-46
2022/06/29 00:14:56;;;;;;;4.00;3.00;;;28.00;52.40;;;;;;4916456;29;20039;-46
2022/06/29 00:17:22;;;;;;;3.70;2.92;;;28.00;52.40;;;;;;4916074;29;20465;-46
2022/06/29 00:19:49;;;;;;;3.88;3.00;;;28.10;52.40;;;;;;4915582;29;20024;-46
2022/06/29 00:22:15;;;;;;;4.03;3.33;;;28.00;52.50;;;;;;4916129;29;20039;-46
2022/06/29 00:24:41;;;;;;;3.80;3.05;;;28.00;52.50;;;;;;4917324;29;20487;-46
2022/06/29 00:27:08;;;;;;;3.83;3.13;;;28.00;52.40;;;;;;4918149;29;20039;-46
2022/06/29 00:29:34;;;;;;;3.60;3.10;;;28.00;52.40;;;;;;4915978;29;20036;-46
2022/06/29 00:32:00;;;;;;;3.95;3.05;;;28.00;52.50;;;;;;4915673;29;20024;-46
2022/06/29 00:34:26;;;;;;;3.90;2.88;;;28.00;52.40;;;;;;4915705;29;20047;-46
2022/06/29 00:36:52;;;;;;;4.38;3.10;;;28.00;52.50;;;;;;4916106;29;20027;-46
2022/06/29 00:39:18;;;;;;;3.53;2.90;;;28.00;52.50;;;;;;4915496;29;20704;-46
2022/06/29 00:41:45;;;;;;;4.05;3.33;;;28.00;52.40;;;;;;4917740;29;20035;-46
2022/06/29 00:44:18;;;;;;;3.90;3.20;;;28.00;52.40;;;;;;4916132;29;20079;-46
2022/06/29 00:46:58;;;;;;;4.32;2.88;;;28.00;52.40;;;;;;4915562;29;20108;-46
2022/06/29 00:49:26;;;;;;;3.47;2.85;;;28.00;52.40;;;;;;4916770;29;20027;-46
2022/06/29 00:52:09;;;;;;;3.60;3.03;;;28.10;52.40;;;;;;4915538;29;20047;-46
2022/06/29 00:54:40;;;;;;;4.22;3.20;;;28.00;52.40;;;;;;4914982;29;20035;-46
2022/06/29 00:57:25;;;;;;;3.80;2.83;;;28.00;52.40;;;;;;4917888;29;20036;-46
2022/06/29 00:59:53;;;;;;;4.28;3.50;;;28.00;52.40;;;;;;4916023;29;20031;-46
2022/06/29 01:02:22;;;;;;;3.40;3.00;;;28.00;52.50;;;;;;4916189;29;20067;-46
2022/06/29 01:04:49;;;;;;;3.53;2.80;;;28.00;52.40;;;;;;4915774;29;20024;-46
2022/06/29 01:07:16;;;;;;;3.90;3.00;;;28.00;52.30;;;;;;4915372;29;20032;-46
2022/06/29 01:09:45;;;;;;;4.38;3.13;;;28.00;52.50;;;;;;4915245;29;20030;-46
2022/06/29 01:12:12;;;;;;;4.18;3.08;;;28.00;52.40;;;;;;4917241;29;20032;-46
2022/06/29 01:14:40;;;;;;;3.97;3.25;;;28.00;52.40;;;;;;4915564;29;20059;-46
2022/06/29 01:17:06;;;;;;;4.20;3.10;;;28.00;52.50;;;;;;4915333;29;20088;-46
2022/06/29 01:19:32;;;;;;;3.47;2.75;;;28.00;52.40;;;;;;4915126;29;20031;-46
2022/06/29 01:22:25;;;;;;;4.18;3.17;;;28.00;52.40;;;;;;4914050;29;20043;-46
2022/06/29 01:24:51;;;;;;;3.72;3.00;;;28.00;52.40;;;;;;4911586;29;20314;-46
2022/06/29 01:27:18;;;;;;;4.32;3.30;;;28.00;52.40;;;;;;4915605;29;20028;-46
2022/06/29 01:29:44;;;;;;;3.55;3.05;;;28.00;52.40;;;;;;4914182;29;20107;-46
2022/06/29 01:32:11;;;;;;;3.53;3.08;;;28.00;52.40;;;;;;4913907;29;20103;-46
2022/06/29 01:34:37;;;;;;;4.45;3.28;;;28.00;52.40;;;;;;4914222;29;20035;-46
2022/06/29 01:37:03;;;;;;;4.00;3.17;;;28.00;52.30;;;;;;4914972;29;20492;-46
2022/06/29 01:39:29;;;;;;;3.50;2.60;;;28.00;52.30;;;;;;4915017;29;20051;-46
2022/06/29 01:41:56;;;;;;;3.70;3.00;;;27.90;51.90;;;;;;4916988;29;20076;-46
2022/06/29 01:44:21;;;;;;;4.03;2.95;;;28.00;52.30;;;;;;4915285;29;20559;-46
2022/06/29 01:46:47;;;;;;;4.00;3.35;;;28.00;52.30;;;;;;4914904;29;20036;-46
2022/06/29 01:49:13;;;;;;;5.78;3.40;;;28.00;52.30;;;;;;4915052;29;20084;-46
2022/06/29 01:51:39;;;;;;;3.92;3.33;;;28.00;52.30;;;;;;4914056;29;20039;-46
2022/06/29 01:54:05;;;;;;;4.00;3.25;;;28.00;52.30;;;;;;4915366;29;20684;-46
2022/06/29 01:56:30;;;;;;;4.18;3.53;;;28.00;52.30;;;;;;4915544;29;20043;-47
2022/06/29 01:58:56;;;;;;;5.10;3.35;;;28.00;52.30;;;;;;4914726;29;20103;-46
2022/06/29 02:01:22;;;;;;;3.53;2.92;;;28.00;52.40;;;;;;4914872;29;20031;-46
2022/06/29 02:03:48;;;;;;;5.15;3.72;;;28.00;52.30;;;;;;4915279;29;20047;-46
2022/06/29 02:06:13;;;;;;;4.22;3.30;;;28.00;52.30;;;;;;4916783;29;20039;-46
2022/06/29 02:08:39;;;;;;;4.60;3.40;;;28.00;52.30;;;;;;4916615;29;20032;-46
2022/06/29 02:11:05;;;;;;;3.65;3.05;;;27.90;51.80;;;;;;4919301;29;20051;-46
2022/06/29 02:13:31;;;;;;;3.78;3.10;;;28.00;52.30;;;;;;4918753;29;20024;-46
2022/06/29 02:15:57;;;;;;;3.80;3.05;;;28.00;52.30;;;;;;4918933;29;20035;-46
2022/06/29 02:18:23;;;;;;;3.97;3.28;;;28.00;52.30;;;;;;4917978;29;20029;-46
2022/06/29 02:20:49;;;;;;;3.60;2.80;;;28.00;52.30;;;;;;4918196;29;20066;-46
2022/06/29 02:23:15;;;;;;;3.72;3.10;;;28.00;52.20;;;;;;4918578;29;20039;-46
2022/06/29 02:25:41;;;;;;;3.40;2.63;;;28.00;52.20;;;;;;4921279;29;20498;-46
2022/06/29 02:28:06;;;;;;;4.53;3.47;;;28.00;52.20;;;;;;4918266;29;20115;-46
2022/06/29 02:36:02;;;;;;;4.72;3.38;;;28.00;52.20;;;;;;4917815;29;20028;-46
2022/06/29 02:38:27;;;;;;;4.40;3.25;;;27.90;51.80;;;;;;4916475;29;20735;-46
2022/06/29 02:40:53;;;;;;;3.97;3.10;;;27.90;51.80;;;;;;4919671;29;20082;-46
2022/06/29 02:43:19;;;;;;;3.95;3.10;;;27.90;51.70;;;;;;4918755;29;20032;-46
2022/06/29 02:45:45;;;;;;;4.30;3.50;;;27.90;51.70;;;;;;4916878;29;20028;-46
2022/06/29 02:48:10;;;;;;;3.60;3.00;;;27.90;51.80;;;;;;4917565;29;20082;-46
2022/06/29 02:50:36;;;;;;;4.10;3.03;;;27.90;51.80;;;;;;4918228;29;20023;-46
2022/06/29 02:53:02;;;;;;;3.75;3.00;;;27.90;51.80;;;;;;4916860;29;20095;-46
2022/06/29 02:55:28;;;;;;;3.50;2.75;;;27.90;51.70;;;;;;4916361;29;20556;-46
2022/06/29 02:57:53;;;;;;;4.30;3.05;;;27.90;51.80;;;;;;4918041;29;20032;-46
2022/06/29 03:00:19;;;;;;;3.97;3.28;;;27.90;51.80;;;;;;4916704;29;20541;-46
2022/06/29 03:02:45;;;;;;;4.55;3.20;;;27.90;51.70;;;;;;4916365;29;20027;-46
2022/06/29 03:05:11;;;;;;;3.47;2.95;;;27.90;51.60;;;;;;4917825;29;20054;-46
2022/06/29 03:07:37;;;;;;;3.67;2.72;;;27.90;51.70;;;;;;4915957;29;20107;-46
2022/06/29 03:10:03;;;;;;;4.03;3.03;;;27.90;51.80;;;;;;4917871;29;20720;-47
2022/06/29 03:12:29;;;;;;;3.50;2.90;;;27.90;51.80;;;;;;4918801;29;20397;-46
2022/06/29 03:14:55;;;;;;;3.80;2.90;;;27.90;51.80;;;;;;4917163;29;20028;-46
2022/06/29 03:17:20;;;;;;;3.33;2.70;;;27.90;51.80;;;;;;4917639;29;20023;-46
2022/06/29 03:19:46;;;;;;;3.80;3.22;;;27.90;51.70;;;;;;4918784;29;20107;-46
2022/06/29 03:22:12;;;;;;;3.78;3.00;;;27.90;51.80;;;;;;4916210;29;20028;-46
2022/06/29 03:24:39;;;;;;;3.90;3.20;;;27.90;51.70;;;;;;4917683;29;20028;-46
2022/06/29 03:27:05;;;;;;;3.92;3.20;;;28.00;52.20;;;;;;4918704;29;20111;-46
2022/06/29 03:29:31;;;;;;;4.30;3.15;;;27.90;51.60;;;;;;4916932;29;20028;-46
2022/06/29 03:31:57;;;;;;;3.50;3.03;;;27.90;51.70;;;;;;4917586;29;20076;-46
2022/06/29 03:34:22;;;;;;;3.95;3.20;;;27.90;51.60;;;;;;4917002;29;20111;-46
2022/06/29 03:36:48;;;;;;;3.97;3.25;;;27.90;51.60;;;;;;4916763;29;20027;-46
2022/06/29 03:39:14;;;;;;;4.20;3.15;;;27.90;51.60;;;;;;4916926;29;20055;-46
2022/06/29 03:41:39;;;;;;;3.83;3.28;;;27.90;51.70;;;;;;4917084;29;20032;-46
2022/06/29 03:44:05;;;;;;;3.63;2.97;;;27.90;51.60;;;;;;4917222;29;20609;-46
2022/06/29 03:46:31;;;;;;;3.75;3.00;;;27.90;51.50;;;;;;4916917;29;20039;-47
2022/06/29 03:48:57;;;;;;;4.13;2.88;;;27.90;51.50;;;;;;4915174;29;20032;-46
2022/06/29 03:51:23;;;;;;;4.68;2.95;;;27.90;51.50;;;;;;4916859;29;20131;-46
2022/06/29 03:53:49;;;;;;;3.92;3.15;;;27.90;51.50;;;;;;4917409;29;20036;-45
2022/06/29 03:56:15;;;;;;;3.90;3.20;;;27.90;51.50;;;;;;4916302;29;20223;-47
2022/06/29 03:58:40;;;;;;;3.83;2.97;;;27.90;51.50;;;;;;4916487;29;20024;-46
2022/06/29 04:01:06;;;;;;;3.85;3.10;;;27.90;51.50;;;;;;4916624;29;20032;-46
2022/06/29 04:03:32;;;;;;;4.05;3.35;;;27.90;51.70;;;;;;4916710;29;20431;-46
2022/06/29 04:05:58;;;;;;;4.00;3.30;;;27.90;51.70;;;;;;4916307;29;20167;-46
2022/06/29 04:08:24;;;;;;;4.50;3.00;;;27.90;51.70;;;;;;4915751;29;20031;-46
2022/06/29 04:10:49;;;;;;;3.72;2.80;;;27.90;51.70;;;;;;4916869;29;20074;-46
2022/06/29 04:13:15;;;;;;;4.13;2.70;;;27.90;51.70;;;;;;4916707;29;20028;-46
2022/06/29 04:15:41;;;;;;;4.22;3.40;;;27.90;51.70;;;;;;4915888;29;20031;-46
2022/06/29 04:18:07;;;;;;;4.05;3.10;;;27.90;51.70;;;;;;4916051;29;20524;-46
2022/06/29 04:23:17;;;;;;;3.67;3.17;;;27.90;51.70;;;;;;4915240;29;20031;-46
2022/06/29 04:25:43;;;;;;;3.97;3.35;;;27.90;51.50;;;;;;4915628;29;20040;-46
2022/06/29 04:28:09;;;;;;;3.60;3.10;;;27.90;51.50;;;;;;4916099;29;20449;-46
2022/06/29 04:30:34;;;;;;;4.05;3.08;;;27.90;51.50;;;;;;4915426;29;20035;-46
2022/06/29 04:33:00;;;;;;;3.80;3.00;;;27.90;51.50;;;;;;4916509;29;20031;-46
2022/06/29 04:35:26;;;;;;;3.90;3.20;;;27.90;51.40;;;;;;4916038;29;20027;-46
2022/06/29 04:37:51;;;;;;;3.72;2.88;;;27.90;51.50;;;;;;4914555;29;20023;-46
2022/06/29 04:40:17;;;;;;;3.92;3.38;;;27.90;51.50;;;;;;4915499;29;20591;-46
2022/06/29 04:42:43;;;;;;;3.40;2.70;;;27.90;51.40;;;;;;4917447;29;20024;-46
2022/06/29 04:46:19;;;;;;;4.32;3.42;;;27.90;51.50;;;;;;4916215;29;20065;-47
2022/06/29 04:48:02;;;;;;;4.20;3.42;;;27.90;51.40;;;;;;4915042;29;20024;-46
2022/06/29 04:50:28;;;;;;;3.90;3.40;;;27.90;51.50;;;;;;4915443;29;20028;-46
2022/06/29 04:52:54;;;;;;;4.25;3.65;;;27.90;51.50;;;;;;4914695;29;20020;-46
2022/06/29 04:55:21;;;;;;;3.97;3.17;;;27.90;51.50;;;;;;4915146;29;20032;-46
2022/06/29 04:57:46;;;;;;;4.15;3.35;;;27.90;51.60;;;;;;4916414;29;20024;-46
2022/06/29 05:00:12;;;;;;;4.68;3.55;;;27.90;51.80;;;;;;4914778;29;20042;-46
2022/06/29 05:02:38;;;;;;;4.30;3.78;;;27.90;51.70;;;;;;4914567;29;20020;-46
2022/06/29 05:05:04;;;;;;;4.53;3.53;;;27.90;51.70;;;;;;4914660;29;20598;-46
2022/06/29 05:07:30;;;;;;;5.03;3.90;;;27.90;51.60;;;;;;4916636;29;20047;-46
2022/06/29 05:09:56;;;;;;;4.80;3.70;;;27.90;51.60;;;;;;4917076;29;20024;-46
2022/06/29 05:12:21;;;;;;;4.32;3.58;;;27.90;51.70;;;;;;4915977;29;20127;-47
2022/06/29 05:14:47;;;;;;;4.25;3.85;;;27.90;51.70;;;;;;4914521;29;20055;-46
2022/06/29 05:17:13;;;;;;;4.35;3.65;;;27.90;51.80;;;;;;4913536;29;20165;-46
2022/06/29 05:19:38;;;;;;;4.70;4.03;;;27.90;51.90;;;;;;4913570;29;20622;-47
2022/06/29 05:22:04;;;;;;;6.10;4.03;;;27.90;52.00;;;;;;4914469;29;20401;-46
2022/06/29 05:24:31;;;;;;;5.80;4.50;;;27.90;52.20;;;;;;4914120;29;20036;-46
2022/06/29 05:26:56;;;;;;;5.00;4.38;;;27.90;52.40;;;;;;4914955;29;20060;-46
2022/06/29 05:29:24;;;;;;;4.90;4.20;;;27.90;52.40;;;;;;4912600;29;20111;-46
2022/06/29 05:31:49;;;;;;;5.28;4.78;;;28.00;53.00;;;;;;4914024;29;20027;-47
2022/06/29 05:34:15;;;;;;;5.00;4.50;;;28.00;53.10;;;;;;4911953;29;20028;-46
2022/06/29 05:36:41;;;;;;;6.90;4.78;;;28.00;53.40;;;;;;4914214;29;20130;-46
2022/06/29 05:39:07;;;;;;;6.50;4.80;;;27.90;53.70;;;;;;4917008;29;20027;-48
2022/06/29 05:41:32;;;;;;;6.95;5.47;;;28.00;54.20;;;;;;4919116;29;20023;-47
2022/06/29 05:43:58;;;;;;;6.32;5.70;;;27.90;54.10;;;;;;4918983;29;20035;-47
2022/06/29 05:46:24;;;;;;;6.13;5.53;;;27.90;54.00;;;;;;4918756;29;20023;-48
2022/06/29 05:48:50;;;;;;;5.95;5.25;;;27.90;54.20;;;;;;4918314;29;20057;-47
2022/06/29 05:51:15;;;;;;;5.47;4.93;;;27.90;54.50;;;;;;4917789;29;20040;-47
2022/06/29 05:53:41;;;;;;;6.13;5.43;;;27.90;54.60;;;;;;4918014;29;20028;-50
2022/06/29 05:56:07;;;;;;;6.35;5.70;;;27.90;54.70;;;;;;4920339;29;20105;-49
2022/06/29 05:58:32;;;;;;;6.03;5.38;;;27.90;54.70;;;;;;4918400;29;20024;-48
2022/06/29 06:00:58;;;;;;;5.75;5.22;;;27.80;54.70;;;;;;4914836;29;20115;-50
2022/06/29 06:03:24;;;;;;;6.13;5.28;;;27.80;54.70;;;;;;4928370;29;20520;-48
2022/06/29 06:05:50;;;;;;;5.95;5.28;;;27.90;54.60;;;;;;4927963;29;20353;-49
2022/06/29 06:08:15;;;;;;;5.93;5.15;;;27.90;54.40;;;;;;4927838;29;20039;-47
2022/06/29 06:10:41;;;;;;;5.95;5.35;;;27.90;54.60;;;;;;4928499;29;20106;-48
2022/06/29 06:13:08;;;;;;;5.90;4.97;;;27.90;54.60;;;;;;4928318;29;20028;-49
2022/06/29 06:15:35;;;;;;;5.93;5.32;;;27.90;54.40;;;;;;4924402;29;20023;-47
2022/06/29 06:18:01;;;;;;;6.18;5.57;;;27.90;54.50;;;;;;4917236;29;20016;-49
2022/06/29 06:20:28;;;;;;;6.25;5.65;;;27.90;54.40;;;;;;4919261;29;20051;-48
2022/06/29 06:22:55;;;;;;;5.75;5.20;;;27.90;54.40;;;;;;4918849;29;20496;-48
2022/06/29 06:25:21;;;;;;;5.72;5.10;;;27.90;54.50;;;;;;4917599;29;20554;-50
2022/06/29 06:27:46;;;;;;;6.00;5.40;;;27.90;54.50;;;;;;4918815;29;20024;-47
2022/06/29 06:30:12;;;;;;;5.90;5.30;;;27.90;54.40;;;;;;4917301;29;20036;-49
2022/06/29 06:32:38;;;;;;;5.97;5.38;;;27.90;54.70;;;;;;4918441;29;20023;-49
2022/06/29 06:35:05;;;;;;;6.40;5.13;;;27.90;54.60;;;;;;4917823;29;20641;-48
2022/06/29 06:37:30;;;;;;;6.00;5.40;;;27.90;54.90;;;;;;4916786;29;20098;-48
2022/06/29 06:42:40;;;;;;;5.30;4.80;;;27.90;54.50;;;;;;4915983;29;20111;-48
2022/06/29 06:45:07;;;;;;;6.40;5.35;;;27.90;54.30;;;;;;4908857;29;20111;-49
2022/06/29 06:47:32;;;;;;;5.63;5.13;;;27.90;54.20;;;;;;4908382;29;20489;-48
2022/06/29 06:49:58;;;;;;;7.15;5.25;;;27.90;54.00;;;;;;4909246;29;20036;-48
2022/06/29 06:52:24;;;;;;;5.65;5.00;;;27.90;53.90;;;;;;4915580;29;20088;-47
2022/06/29 06:54:50;;;;;;;5.43;4.85;;;27.90;53.80;;;;;;4927505;29;20396;-50
2022/06/29 06:57:15;;;;;;;5.80;4.75;;;27.90;53.70;;;;;;4926776;29;20032;-49
2022/06/29 06:59:41;;;;;;;5.90;4.63;;;27.90;53.70;;;;;;4928129;29;20023;-49
2022/06/29 07:02:07;;;;;;;5.57;4.20;;;27.90;53.60;;;;;;4927885;29;20032;-48
2022/06/29 07:04:33;;;;;;;5.13;4.40;;;27.90;53.50;;;;;;4927581;29;20071;-49
2022/06/29 07:06:58;;;;;;;5.22;4.72;;;27.90;53.40;;;;;;4927354;29;20102;-50
2022/06/29 07:09:24;;;;;;;5.82;4.70;;;27.90;53.40;;;;;;4927572;29;20058;-50
2022/06/29 07:11:50;;;;;;;6.07;4.70;;;27.90;53.30;;;;;;4927535;29;20563;-48
2022/06/29 07:14:16;;;;;;;5.10;4.60;;;27.90;53.20;;;;;;4927974;29;20028;-49
2022/06/29 07:16:42;;;;;;;5.32;4.82;;;27.90;53.10;;;;;;4926282;29;20028;-50
2022/06/29 07:19:08;;;;;;;4.65;4.20;;;27.90;53.10;;;;;;4926921;29;20035;-48
2022/06/29 07:21:33;;;;;;;4.88;4.38;;;27.90;53.10;;;;;;4927578;29;20589;-49
2022/06/29 07:23:59;;;;;;;5.15;4.30;;;27.90;53.00;;;;;;4926825;29;20028;-48
2022/06/29 07:26:26;;;;;;;5.63;4.45;;;27.90;52.90;;;;;;4927499;29;20055;-50
2022/06/29 07:28:52;;;;;;;4.70;4.05;;;27.90;53.00;;;;;;4927348;29;20126;-48
2022/06/29 07:31:18;;;;;;;5.35;4.65;;;27.90;52.90;;;;;;4926265;29;20032;-49
2022/06/29 07:33:44;;;;;;;5.65;4.18;;;27.90;52.90;;;;;;4926196;29;20447;-48
2022/06/29 07:36:10;;;;;;;5.22;4.35;;;27.90;52.80;;;;;;4926893;29;20031;-48
2022/06/29 07:38:35;;;;;;;4.70;4.20;;;27.90;52.80;;;;;;4926560;29;20715;-48
2022/06/29 07:41:01;;;;;;;4.68;4.00;;;27.90;53.50;;;;;;4926685;29;20431;-49
2022/06/29 07:43:28;;;;;;;4.40;3.83;;;27.90;52.80;;;;;;4927202;29;20091;-48
2022/06/29 07:45:56;;;;;;;4.75;3.80;;;27.90;52.80;;;;;;4927305;29;20034;-48
2022/06/29 07:48:23;;;;;;;4.43;4.03;;;27.90;52.80;;;;;;4926442;29;20036;-49
2022/06/29 07:50:48;;;;;;;4.85;4.13;;;27.90;52.80;;;;;;4927193;29;20536;-48
2022/06/29 07:53:14;;;;;;;4.63;3.97;;;27.90;52.80;;;;;;4925563;29;20091;-49
2022/06/29 07:55:40;;;;;;;4.53;3.78;;;27.90;52.80;;;;;;4909713;29;20027;-48
2022/06/29 07:58:06;;;;;;;4.18;3.75;;;27.90;52.80;;;;;;4926498;29;20079;-48
2022/06/29 08:00:33;;;;;;;4.78;3.50;;;27.90;52.80;;;;;;4925743;29;20542;-48
2022/06/29 08:02:59;;;;;;;4.88;3.92;;;27.90;52.70;;;;;;4925752;29;20696;-50
2022/06/29 08:05:25;;;;;;;5.00;4.07;;;27.90;52.60;;;;;;4926430;29;20035;-49
2022/06/29 08:07:50;;;;;;;4.30;3.85;;;27.90;52.50;;;;;;4925926;29;20063;-48
2022/06/29 08:10:17;;;;;;;4.22;3.65;;;27.90;52.60;;;;;;4926833;29;20460;-50
2022/06/29 08:12:43;;;;;;;4.50;3.88;;;27.90;52.60;;;;;;4925233;29;20107;-49
2022/06/29 08:15:09;;;;;;;4.13;3.65;;;27.90;52.60;;;;;;4926670;29;20126;-48
2022/06/29 08:17:35;;;;;;;4.75;3.70;;;27.90;52.50;;;;;;4924845;29;20039;-49
2022/06/29 08:20:03;;;;;;;4.20;3.55;;;27.90;52.50;;;;;;4926011;29;20023;-48
2022/06/29 08:22:29;;;;;;;5.10;3.92;;;27.90;52.50;;;;;;4926400;29;20023;-49
2022/06/29 08:24:55;;;;;;;4.50;3.83;;;27.90;52.50;;;;;;4925943;29;20038;-48
2022/06/29 08:27:24;;;;;;;4.30;3.80;;;27.90;52.40;;;;;;4924670;29;20110;-48
2022/06/29 08:29:50;;;;;;;4.75;4.05;;;27.90;52.40;;;;;;4926183;29;20035;-49
2022/06/29 08:32:16;;;;;;;4.35;3.33;;;27.90;52.30;;;;;;4925799;29;20036;-48
2022/06/29 08:34:42;;;;;;;3.90;3.50;;;27.90;52.40;;;;;;4925868;29;20032;-50
2022/06/29 08:37:08;;;;;;;4.55;3.80;;;27.90;52.30;;;;;;4925945;29;20685;-48
2022/06/29 08:39:33;;;;;;;4.00;3.15;;;27.90;52.20;;;;;;4925717;29;20078;-48
2022/06/29 08:42:06;;;;;;;4.85;3.80;;;28.00;52.70;;;;;;4925974;29;20035;-48
2022/06/29 08:44:34;;;;;;;4.20;3.60;;;28.00;52.80;;;;;;4926042;29;20697;-48
2022/06/29 08:47:04;;;;;;;3.35;2.95;;;28.00;52.80;;;;;;4925604;29;20037;-48
2022/06/29 08:49:33;;;;;;;5.15;3.80;;;28.00;52.90;;;;;;4925727;29;20043;-49
2022/06/29 08:52:03;;;;;;;4.07;3.58;;;28.00;52.90;;;;;;4925691;29;20110;-49
2022/06/29 08:54:31;;;;;;;3.78;3.10;;;28.00;52.90;;;;;;4925742;29;20039;-49
2022/06/29 08:56:58;;;;;;;4.30;3.90;;;27.90;52.40;;;;;;4925436;29;20027;-48
2022/06/29 08:59:24;;;;;;;4.35;3.42;;;28.00;52.80;;;;;;4925022;29;20119;-49
2022/06/29 09:01:50;;;;;;;3.75;3.30;;;28.00;52.80;;;;;;4925661;29;20122;-49
2022/06/29 09:04:18;;;;;;;4.25;3.45;;;28.00;52.80;;;;;;4925635;29;20032;-50
2022/06/29 09:06:44;;;;;;;4.60;3.60;;;28.00;52.60;;;;;;4925604;29;20036;-49
2022/06/29 09:09:10;;;;;;;3.90;3.10;;;28.00;52.60;;;;;;4925548;29;20059;-49
2022/06/29 09:11:42;;;;;;;3.88;3.10;;;28.00;52.60;;;;;;4924812;29;20123;-49
2022/06/29 09:14:15;;;;;;;;;;;28.00;52.60;;;;;;4925227;29;20492;-48
2022/06/29 09:17:01;;;;;;;4.13;3.13;;;28.00;52.60;;;;;;4925809;29;19917;-49
2022/06/29 09:19:45;;;;;;;3.95;3.42;;;28.00;52.70;;;;;;4925053;29;20031;-49
2022/06/29 09:22:11;;;;;;;3.50;2.88;;;28.00;52.70;;;;;;4925055;29;20704;-49
2022/06/29 09:24:37;;;;;;;3.65;2.95;;;28.00;52.60;;;;;;4925432;29;20032;-49
2022/06/29 09:27:08;;;;;;;4.28;3.20;;;28.00;52.60;;;;;;4924811;29;20034;-48
2022/06/29 09:29:39;;;;;;;4.13;3.10;;;28.00;52.60;;;;;;4925005;29;20039;-48
2022/06/29 09:32:05;;;;;;;4.40;3.20;;;28.00;52.60;;;;;;4925225;29;20937;-49
2022/06/29 09:34:50;;;;;;;3.90;3.00;;;28.00;52.60;;;;;;4925324;29;20427;-50
2022/06/29 09:37:18;;;;;;;4.03;3.40;;;28.00;52.50;;;;;;4925326;29;20384;-49
2022/06/29 09:39:48;;;;;;;3.70;3.03;;;28.00;52.60;;;;;;4925039;29;20024;-49
2022/06/29 09:42:26;;;;;;;4.75;3.38;;;28.00;52.70;;;;;;4925362;29;20082;-49
2022/06/29 09:44:52;;;;;;;4.82;3.78;;;28.00;52.70;;;;;;4925518;29;20040;-49
2022/06/29 09:47:19;;;;;;;3.60;3.10;;;28.00;52.70;;;;;;4924897;29;20090;-49
2022/06/29 09:49:51;;;;;;;3.58;2.80;;;28.00;53.40;;;;;;4925195;29;20032;-50
2022/06/29 09:52:19;;;;;;;3.40;3.03;;;28.10;52.70;;;;;;4925115;29;20032;-49
2022/06/29 09:54:55;;;;;;;4.03;3.10;;;28.10;52.50;;;;;;4923907;29;20091;-49
2022/06/29 09:57:28;;;;;;;3.75;3.00;;;28.00;52.60;;;;;;4924993;29;20020;-48
2022/06/29 10:02:51;;;;;;;3.42;2.60;;;28.00;52.50;;;;;;4924952;29;20102;-48
2022/06/29 10:05:20;;;;;;;3.50;2.90;;;28.00;52.50;;;;;;4924944;29;20040;-48
2022/06/29 10:07:50;;;;;;;3.72;3.03;;;28.00;52.50;;;;;;4924528;29;20039;-50
2022/06/29 10:10:19;;;;;;;4.05;3.22;;;28.10;52.50;;;;;;4924435;29;20091;-48
2022/06/29 10:13:42;;;;;;;3.65;2.95;;;28.10;52.50;;;;;;4925043;29;20032;-49
2022/06/29 10:16:27;;;;;;;4.40;3.28;;;28.10;52.50;;;;;;4925051;29;20540;-49
2022/06/29 10:19:20;;;;;;;3.78;2.95;;;28.10;52.50;;;;;;4925009;29;20040;-48
2022/06/29 10:21:46;;;;;;;4.07;2.75;;;28.10;52.40;;;;;;4906357;29;20120;-49
2022/06/29 10:24:16;;;;;;;4.03;3.03;;;28.10;52.40;;;;;;4905695;29;20115;-48
2022/06/29 10:26:43;;;;;;;3.58;2.80;;;28.10;52.50;;;;;;4908989;29;20028;-47
2022/06/29 10:29:09;;;;;;;3.80;2.88;;;28.10;52.40;;;;;;4928331;29;20063;-48
2022/06/29 10:31:53;;;;;;;3.60;3.17;;;28.10;52.40;;;;;;4928560;29;20492;-48
2022/06/29 10:34:31;;;;;;;3.20;2.63;;;28.10;52.40;;;;;;4928424;29;20164;-48
2022/06/29 10:37:02;;;;;;;3.50;2.80;;;28.10;52.40;;;;;;4927872;29;20710;-48
2022/06/29 10:39:49;;;;;;;3.45;2.88;;;28.10;52.40;;;;;;4927873;29;20034;-50
2022/06/29 10:45:18;;;;;;;4.82;2.95;;;28.10;52.30;;;;;;4928318;29;20554;-48
2022/06/29 10:47:45;;;;;;;3.90;2.72;;;28.10;52.30;;;;;;4927711;29;20035;-49
2022/06/29 10:50:14;;;;;;;3.15;2.35;;;28.10;52.30;;;;;;4927973;29;20028;-49
2022/06/29 10:52:41;;;;;;;3.85;2.80;;;28.10;52.20;;;;;;4927815;29;20035;-48
2022/06/29 10:55:08;;;;;;;3.75;3.15;;;28.10;52.20;;;;;;4927154;29;20111;-48
2022/06/29 10:57:34;;;;;;;3.72;3.05;;;28.10;52.20;;;;;;4927306;29;20110;-48
2022/06/29 11:00:05;;;;;;;3.70;2.80;;;28.10;52.20;;;;;;4926417;29;20031;-48
2022/06/29 11:02:31;;;;;;;3.63;2.90;;;28.10;52.20;;;;;;4927826;29;20106;-48
2022/06/29 11:04:58;;;;;;;3.80;3.03;;;28.20;52.20;;;;;;4927851;29;20142;-49
2022/06/29 11:12:54;;;;;;;4.07;2.78;;;28.10;52.10;;;;;;4927552;29;20706;-49
2022/06/29 11:15:39;;;;;;;3.08;2.63;;;28.20;52.20;;;;;;4927327;29;20515;-49
2022/06/29 11:18:06;;;;;;;3.50;2.55;;;28.20;52.10;;;;;;4927270;29;20030;-47
2022/06/29 11:20:32;;;;;;;3.55;2.72;;;28.20;52.10;;;;;;4927732;29;20027;-49
2022/06/29 11:22:58;;;;;;;3.55;2.78;;;28.20;52.10;;;;;;4927290;29;20059;-48
2022/06/29 11:25:25;;;;;;;3.25;2.50;;;28.20;52.10;;;;;;4926915;29;20523;-48
2022/06/29 11:27:51;;;;;;;3.42;2.72;;;28.20;52.10;;;;;;4927102;29;20180;-47
2022/06/29 11:30:22;;;;;;;3.85;2.88;;;28.20;52.10;;;;;;4927231;29;20063;-49
2022/06/29 11:32:49;;;;;;;3.70;3.00;;;28.20;52.10;;;;;;4927145;29;20024;-49
2022/06/29 11:35:17;;;;;;;3.95;3.08;;;28.20;52.00;;;;;;4926763;29;20609;-49
2022/06/29 11:37:57;;;;;;;3.50;2.63;;;28.20;52.10;;;;;;4926764;29;20032;-49
2022/06/29 11:40:35;;;;;;;3.42;2.83;;;28.30;52.00;;;;;;4926344;29;20122;-48
2022/06/29 11:43:11;;;;;;;3.92;2.38;;;28.30;52.10;;;;;;4926734;29;20455;-49
2022/06/29 11:45:48;;;;;;;3.72;2.80;;;28.30;52.00;;;;;;4926799;29;20118;-50
2022/06/29 11:48:24;;;;;;;3.03;2.25;;;28.30;52.00;;;;;;4926391;29;20034;-49
2022/06/29 11:50:52;;;;;;;3.10;2.33;;;28.30;52.00;;;;;;4926916;29;20043;-49
2022/06/29 11:53:41;;;;;;;3.17;2.60;;;28.30;52.10;;;;;;4926993;29;20532;-50
2022/06/29 11:56:09;;;;;;;3.22;2.60;;;28.30;52.00;;;;;;4925056;29;20039;-48
2022/06/29 11:58:36;;;;;;;3.47;2.80;;;28.30;52.00;;;;;;4925857;29;20035;-49
2022/06/29 12:01:10;;;;;;;3.55;2.75;;;28.30;52.00;;;;;;4926564;29;20113;-49
2022/06/29 12:03:36;;;;;;;3.85;2.85;;;28.30;52.00;;;;;;4926851;29;20035;-49
2022/06/29 12:06:03;;;;;;;3.58;2.60;;;28.30;52.00;;;;;;4925373;29;20028;-49
2022/06/29 12:08:32;;;;;;;3.28;2.60;;;28.30;51.90;;;;;;4925631;29;20059;-48
2022/06/29 12:10:58;;;;;;;3.08;2.40;;;28.30;51.90;;;;;;4925120;29;20083;-48
2022/06/29 12:13:24;;;;;;;3.30;2.53;;;28.30;51.90;;;;;;4926500;29;20039;-48
2022/06/29 12:15:50;;;;;;;3.13;2.20;;;28.40;51.90;;;;;;4925017;29;20775;-48
2022/06/29 12:18:16;;;;;;;3.90;2.83;;;28.40;51.90;;;;;;4926368;29;20042;-48
2022/06/29 12:20:43;;;;;;;4.40;3.00;;;28.40;51.90;;;;;;4926518;29;20443;-49
2022/06/29 12:23:09;;;;;;;3.47;2.58;;;28.40;51.90;;;;;;4926204;29;20019;-48
2022/06/29 12:25:35;;;;;;;3.42;2.63;;;28.40;51.80;;;;;;4925972;29;20790;-49
2022/06/29 12:28:02;;;;;;;4.60;2.78;;;28.40;51.90;;;;;;4925923;29;20028;-47
2022/06/29 12:30:28;;;;;;;3.85;2.65;;;28.40;51.90;;;;;;4914106;29;20448;-48
2022/06/29 12:32:53;;;;;;;3.60;2.80;;;28.40;51.90;;;;;;4926004;29;20035;-49
2022/06/29 12:35:19;;;;;;;3.20;2.40;;;28.40;51.80;;;;;;4924508;29;20049;-48
2022/06/29 12:37:45;;;;;;;3.08;2.13;;;28.40;51.80;;;;;;4926067;29;20587;-49
2022/06/29 12:40:11;;;;;;;3.15;2.50;;;28.40;51.80;;;;;;4925463;29;20043;-51
2022/06/29 12:42:38;;;;;;;3.42;2.63;;;28.40;51.80;;;;;;4925685;29;20626;-48
2022/06/29 12:45:05;;;;;;;3.40;2.47;;;28.40;51.70;;;;;;4926165;29;20028;-49
2022/06/29 12:47:31;;;;;;;3.50;2.75;;;28.40;51.70;;;;;;4925163;29;20063;-48
2022/06/29 12:49:56;;;;;;;4.47;2.63;;;28.40;51.80;;;;;;4924610;29;20042;-51
2022/06/29 12:52:23;;;;;;;3.58;2.63;;;28.50;51.80;;;;;;4925578;29;20035;-49
2022/06/29 12:54:49;;;;;;;3.75;2.70;;;28.50;51.90;;;;;;4924572;29;20035;-49
2022/06/29 12:57:18;;;;;;;3.28;2.40;;;28.50;52.10;;;;;;4925559;29;20705;-49
2022/06/29 12:59:44;;;;;;;3.58;2.63;;;28.40;52.10;;;;;;4925355;29;20566;-49
2022/06/29 13:02:10;;;;;;;3.90;2.88;;;28.50;52.20;;;;;;4925169;29;20046;-51
2022/06/29 13:04:36;;;;;;;3.50;2.60;;;28.50;52.30;;;;;;4925588;29;20026;-50
2022/06/29 13:07:02;;;;;;;3.70;2.70;;;28.40;52.30;;;;;;4924286;29;20031;-50
2022/06/29 13:09:28;;;;;;;3.80;2.53;;;28.50;52.30;;;;;;4925316;29;20035;-51
2022/06/29 13:11:54;;;;;;;3.40;2.75;;;28.50;53.10;;;;;;4924737;29;20090;-48